createdAt,value
2023-01-13T00:01:40.213Z,75.47
2023-01-13T00:07:11.589Z,75.35
2023-01-13T00:12:43.752Z,75.70
2023-01-13T00:18:14.596Z,75.43
2023-01-13T00:23:46.100Z,75.31
2023-01-13T00:29:17.429Z,75.51
2023-01-13T00:34:48.961Z,75.52
2023-01-13T00:40:20.296Z,75.50
2023-01-13T00:45:51.952Z,75.46
2023-01-13T00:51:23.259Z,75.42
2023-01-13T00:56:54.443Z,75.50
2023-01-13T01:02:25.646Z,75.36
2023-01-13T01:07:56.698Z,75.56
2023-01-13T01:13:27.838Z,75.37
2023-01-13T01:18:59.245Z,75.42
2023-01-13T01:24:30.195Z,75.19
2023-01-13T01:30:01.454Z,75.40
2023-01-13T01:35:32.552Z,75.39
2023-01-13T01:41:03.536Z,75.42
2023-01-13T01:46:37.743Z,75.58
2023-01-13T01:52:11.338Z,75.13
2023-01-13T01:58:02.708Z,75.43
2023-01-13T02:03:36.812Z,75.49
2023-01-13T02:09:08.088Z,75.30
2023-01-13T02:14:39.579Z,75.48
2023-01-13T02:20:23.271Z,75.30
2023-01-13T02:26:18.004Z,75.19
2023-01-13T02:31:48.950Z,75.46
2023-01-13T02:37:22.758Z,75.24
2023-01-13T02:43:31.696Z,75.32
2023-01-13T02:49:06.609Z,75.00
2023-01-13T02:54:37.760Z,75.37
2023-01-13T03:00:09.197Z,75.11
2023-01-13T03:05:40.024Z,75.43
2023-01-13T03:11:12.025Z,75.23
2023-01-13T03:16:45.975Z,75.43
2023-01-13T03:22:24.110Z,75.21
2023-01-13T03:27:59.545Z,75.10
2023-01-13T03:33:34.946Z,75.32
2023-01-13T03:39:08.257Z,75.26
2023-01-13T03:44:43.308Z,75.40
2023-01-13T03:50:34.618Z,75.30
2023-01-13T03:56:10.345Z,75.52
2023-01-13T04:01:56.506Z,75.20
2023-01-13T04:07:31.906Z,75.49
2023-01-13T04:13:05.629Z,75.46
2023-01-13T04:18:37.512Z,75.08
2023-01-13T04:24:08.908Z,75.38
2023-01-13T04:29:39.765Z,75.31
2023-01-13T04:35:10.786Z,75.58
2023-01-13T04:40:41.893Z,75.48
2023-01-13T04:46:12.876Z,75.33
2023-01-13T04:51:43.947Z,75.05
2023-01-13T04:57:14.861Z,75.47
2023-01-13T05:02:46.074Z,75.21
2023-01-13T05:08:17.227Z,75.33
2023-01-13T05:14:06.303Z,75.56
2023-01-13T05:19:40.937Z,75.38
2023-01-13T05:25:28.380Z,75.03
2023-01-13T05:30:59.859Z,75.69
2023-01-13T05:36:31.087Z,75.31
2023-01-13T05:42:21.211Z,75.26
2023-01-13T05:47:52.359Z,75.11
2023-01-13T05:53:23.460Z,75.23
2023-01-13T05:58:54.563Z,75.29
2023-01-13T06:04:26.044Z,75.41
2023-01-13T06:09:57.130Z,75.40
2023-01-13T06:15:28.077Z,75.17
2023-01-13T06:20:59.114Z,75.27
2023-01-13T06:26:30.853Z,75.40
2023-01-13T06:32:02.999Z,75.43
2023-01-13T06:37:34.299Z,75.34
2023-01-13T06:43:17.838Z,75.36
2023-01-13T06:48:49.038Z,75.32
2023-01-13T06:54:20.288Z,75.51
2023-01-13T06:59:51.601Z,75.50
2023-01-13T07:05:22.776Z,75.42
2023-01-13T07:10:54.485Z,75.33
2023-01-13T07:16:28.505Z,75.56
2023-01-13T07:22:00.054Z,75.59
2023-01-13T07:27:31.188Z,75.77
2023-01-13T07:33:02.343Z,75.58
2023-01-13T07:38:33.745Z,75.44
2023-01-13T07:44:05.213Z,75.54
2023-01-13T07:49:36.286Z,75.57
2023-01-13T07:55:07.522Z,75.73
2023-01-13T08:00:38.658Z,75.70
2023-01-13T08:06:10.083Z,75.87
2023-01-13T08:11:41.299Z,76.06
2023-01-13T08:17:12.414Z,75.74
2023-01-13T08:22:44.469Z,76.03
2023-01-13T08:28:16.049Z,76.08
2023-01-13T08:33:47.209Z,76.09
2023-01-13T08:39:18.992Z,76.06
2023-01-13T08:44:50.190Z,76.04
2023-01-13T08:50:21.426Z,75.99
2023-01-13T08:55:52.634Z,76.08
2023-01-13T09:01:23.838Z,75.96
2023-01-13T09:06:55.488Z,76.03
2023-01-13T09:12:46.037Z,75.98
2023-01-13T09:18:17.054Z,75.80
2023-01-13T09:23:48.373Z,76.03
2023-01-13T09:29:19.295Z,75.78
2023-01-13T09:35:02.427Z,75.65
2023-01-13T09:40:33.400Z,75.55
2023-01-13T09:46:31.455Z,75.75
2023-01-13T09:52:08.447Z,75.83
2023-01-13T09:57:40.205Z,75.55
2023-01-13T10:03:20.120Z,75.62
2023-01-13T10:08:51.484Z,75.89
2023-01-13T10:14:32.576Z,75.63
2023-01-13T10:20:17.892Z,75.61
2023-01-13T10:26:04.943Z,75.68
2023-01-13T10:31:36.063Z,75.55
2023-01-13T10:37:07.740Z,75.19
2023-01-13T10:42:38.701Z,75.56
2023-01-13T10:48:11.956Z,75.26
2023-01-13T10:53:52.035Z,75.43
2023-01-13T10:59:24.121Z,75.39
2023-01-13T11:05:03.092Z,75.48
2023-01-13T11:10:34.341Z,75.17
2023-01-13T11:16:05.527Z,75.28
2023-01-13T11:21:41.450Z,75.09
2023-01-13T11:27:13.796Z,75.46
2023-01-13T11:33:08.203Z,75.07
2023-01-13T11:38:46.284Z,75.04
2023-01-13T11:44:25.808Z,75.08
2023-01-13T11:49:57.132Z,75.22
2023-01-13T11:55:34.292Z,74.82
2023-01-13T12:01:14.661Z,75.08
2023-01-13T12:06:46.303Z,74.96
2023-01-13T12:12:33.232Z,74.85
2023-01-13T12:18:22.674Z,74.88
2023-01-13T12:24:13.432Z,74.81
2023-01-13T12:29:44.707Z,74.85
2023-01-13T12:35:34.412Z,74.85
2023-01-13T12:41:11.385Z,74.82
2023-01-13T12:46:47.038Z,74.95
2023-01-13T12:52:20.143Z,74.80
2023-01-13T12:58:00.189Z,74.96
2023-01-13T13:03:35.505Z,74.81
2023-01-13T13:09:14.227Z,74.51
2023-01-13T13:14:47.703Z,74.83
2023-01-13T13:20:37.731Z,75.01
2023-01-13T13:26:16.784Z,74.60
2023-01-13T13:32:05.994Z,74.66
2023-01-13T13:38:21.565Z,74.74
2023-01-13T13:44:12.782Z,74.89
2023-01-13T13:49:50.382Z,74.67
2023-01-13T13:55:23.093Z,74.83
2023-01-13T14:00:54.585Z,74.78
2023-01-13T14:06:25.818Z,74.47
2023-01-13T14:11:58.168Z,74.91
2023-01-13T14:17:29.836Z,74.69
2023-01-13T14:23:02.035Z,74.60
2023-01-13T14:28:37.215Z,74.81
2023-01-13T14:34:30.575Z,74.92
2023-01-13T14:40:00.166Z,74.90
2023-01-13T14:45:33.380Z,74.74
2023-01-13T14:51:06.107Z,74.76
2023-01-13T14:57:06.409Z,74.78
2023-01-13T15:02:38.456Z,74.88
2023-01-13T15:08:11.262Z,74.79
2023-01-13T15:13:53.466Z,74.79
2023-01-13T15:19:25.231Z,74.90
2023-01-13T15:24:57.176Z,74.87
2023-01-13T15:30:28.941Z,75.04
2023-01-13T15:36:01.999Z,74.65
2023-01-13T15:41:51.325Z,75.22
2023-01-13T15:47:22.484Z,74.95
2023-01-13T15:52:53.503Z,75.10
2023-01-13T15:58:26.081Z,75.11
2023-01-13T16:03:58.422Z,75.13
2023-01-13T16:09:29.689Z,75.09
2023-01-13T16:15:00.875Z,75.31
2023-01-13T16:20:32.263Z,75.18
2023-01-13T16:26:07.094Z,75.23
2023-01-13T16:31:38.213Z,75.47
2023-01-13T16:37:22.481Z,75.46
2023-01-13T16:42:54.086Z,75.31
2023-01-13T16:48:25.057Z,75.54
2023-01-13T16:53:56.331Z,75.56
2023-01-13T16:59:27.682Z,75.69
2023-01-13T17:04:58.556Z,75.82
2023-01-13T17:10:29.326Z,75.60
2023-01-13T17:16:00.586Z,75.67
2023-01-13T17:21:31.870Z,75.78
2023-01-13T17:27:03.715Z,75.53
2023-01-13T17:32:34.641Z,75.45
2023-01-13T17:38:05.750Z,75.78
2023-01-13T17:43:36.813Z,75.76
2023-01-13T17:49:09.548Z,75.83
2023-01-13T17:54:43.247Z,75.67
2023-01-13T18:00:14.983Z,75.48
2023-01-13T18:05:47.470Z,75.60
2023-01-13T18:11:21.502Z,75.61
2023-01-13T18:16:52.956Z,75.60
2023-01-13T18:22:42.587Z,75.63
2023-01-13T18:28:13.782Z,75.47
2023-01-13T18:33:44.913Z,75.45
2023-01-13T18:39:15.690Z,75.40
2023-01-13T18:44:46.856Z,75.35
2023-01-13T18:50:18.305Z,75.06
2023-01-13T18:55:49.225Z,75.02
2023-01-13T19:01:25.853Z,75.02
2023-01-13T19:07:01.147Z,75.10
2023-01-13T19:12:33.868Z,74.95
2023-01-13T19:18:05.357Z,74.94
2023-01-13T19:23:36.739Z,74.79
2023-01-13T19:29:08.937Z,74.98
2023-01-13T19:34:39.785Z,74.85
2023-01-13T19:40:10.881Z,74.88
2023-01-13T19:45:41.832Z,74.83
2023-01-13T19:51:14.686Z,74.65
2023-01-13T19:56:45.917Z,74.92
2023-01-13T20:02:27.636Z,74.79
2023-01-13T20:07:58.903Z,74.66
2023-01-13T20:13:32.320Z,74.55
2023-01-13T20:19:03.465Z,74.51
2023-01-13T20:24:34.681Z,74.44
2023-01-13T20:30:06.411Z,74.49
2023-01-13T20:35:37.655Z,74.39
2023-01-13T20:41:27.093Z,74.52
2023-01-13T20:46:59.502Z,74.27
2023-01-13T20:52:30.673Z,74.33
2023-01-13T20:58:02.000Z,74.35
2023-01-13T21:03:33.604Z,74.32
2023-01-13T21:09:04.694Z,74.43
2023-01-13T21:14:53.977Z,74.79
2023-01-13T21:20:25.043Z,74.83
2023-01-13T21:25:56.256Z,74.62
2023-01-13T21:31:27.610Z,74.67
2023-01-13T21:36:59.740Z,74.80
2023-01-13T21:42:48.937Z,74.71
2023-01-13T21:48:20.019Z,74.86
2023-01-13T21:53:51.299Z,74.64
2023-01-13T21:59:22.539Z,74.76
2023-01-13T22:04:53.824Z,74.66
2023-01-13T22:10:26.170Z,74.85
2023-01-13T22:15:57.344Z,74.71
2023-01-13T22:21:28.660Z,74.35
2023-01-13T22:26:59.801Z,74.69
2023-01-13T22:32:30.992Z,74.90
2023-01-13T22:38:02.141Z,74.73
2023-01-13T22:43:33.636Z,74.92
2023-01-13T22:49:04.989Z,74.67
2023-01-13T22:54:36.491Z,74.87
2023-01-13T23:00:10.107Z,74.91
2023-01-13T23:05:41.771Z,74.85
2023-01-13T23:11:13.732Z,74.89
2023-01-13T23:16:47.120Z,74.94
2023-01-13T23:22:18.293Z,74.38
2023-01-13T23:27:49.474Z,74.94
2023-01-13T23:33:20.847Z,74.68
2023-01-13T23:38:52.272Z,74.85
2023-01-13T23:44:23.506Z,74.90
2023-01-13T23:49:54.864Z,74.79
2023-01-13T23:55:26.245Z,74.84
